sensor_id;sensor_type;location;lat;lon;timestamp;P1;durP1;ratioP1;P2;durP2;ratioP2
74707;SDS011;63360;50.104;8.074;2022-09-09T00:01:46;6.82;;;1.25;;
74707;SDS011;63360;50.104;8.074;2022-09-09T00:04:22;4.73;;;1.30;;
74707;SDS011;63360;50.104;8.074;2022-09-09T00:10:21;2.78;;;1.30;;
74707;SDS011;63360;50.104;8.074;2022-09-09T00:15:22;2.58;;;1.20;;
74707;SDS011;63360;50.104;8.074;2022-09-09T00:17:53;2.37;;;1.30;;
74707;SDS011;63360;50.104;8.074;2022-09-09T00:23:17;5.45;;;1.20;;
74707;SDS011;63360;50.104;8.074;2022-09-09T00:25:52;4.28;;;1.38;;
74707;SDS011;63360;50.104;8.074;2022-09-09T00:28:24;3.53;;;1.08;;
74707;SDS011;63360;50.104;8.074;2022-09-09T00:30:52;4.00;;;1.20;;
74707;SDS011;63360;50.104;8.074;2022-09-09T00:33:19;4.20;;;1.30;;
74707;SDS011;63360;50.104;8.074;2022-09-09T00:35:49;3.95;;;1.35;;
74707;SDS011;63360;50.104;8.074;2022-09-09T00:38:34;4.00;;;1.40;;
74707;SDS011;63360;50.104;8.074;2022-09-09T00:41:22;3.53;;;1.20;;
74707;SDS011;63360;50.104;8.074;2022-09-09T00:44:06;4.33;;;1.27;;
74707;SDS011;63360;50.104;8.074;2022-09-09T00:47:00;3.40;;;1.08;;
74707;SDS011;63360;50.104;8.074;2022-09-09T00:58:09;2.10;;;1.20;;
74707;SDS011;63360;50.104;8.074;2022-09-09T01:06:14;3.35;;;1.10;;
74707;SDS011;63360;50.104;8.074;2022-09-09T01:16:56;2.70;;;0.90;;
74707;SDS011;63360;50.104;8.074;2022-09-09T01:28:16;3.05;;;1.08;;
74707;SDS011;63360;50.104;8.074;2022-09-09T01:30:46;5.47;;;1.23;;
74707;SDS011;63360;50.104;8.074;2022-09-09T01:33:16;4.03;;;1.10;;
74707;SDS011;63360;50.104;8.074;2022-09-09T01:35:45;4.78;;;0.80;;
74707;SDS011;63360;50.104;8.074;2022-09-09T01:38:16;2.10;;;0.80;;
74707;SDS011;63360;50.104;8.074;2022-09-09T01:40:42;1.83;;;0.80;;
74707;SDS011;63360;50.104;8.074;2022-09-09T01:43:08;2.72;;;1.15;;
74707;SDS011;63360;50.104;8.074;2022-09-09T01:45:34;2.83;;;0.87;;
74707;SDS011;63360;50.104;8.074;2022-09-09T01:47:59;5.13;;;1.10;;
74707;SDS011;63360;50.104;8.074;2022-09-09T01:50:25;4.90;;;1.07;;
74707;SDS011;63360;50.104;8.074;2022-09-09T01:52:52;2.58;;;1.00;;
74707;SDS011;63360;50.104;8.074;2022-09-09T01:55:23;5.38;;;1.10;;
74707;SDS011;63360;50.104;8.074;2022-09-09T02:00:41;2.72;;;1.10;;
74707;SDS011;63360;50.104;8.074;2022-09-09T02:08:50;3.00;;;0.90;;
74707;SDS011;63360;50.104;8.074;2022-09-09T02:11:20;4.30;;;0.90;;
74707;SDS011;63360;50.104;8.074;2022-09-09T02:13:48;4.22;;;0.98;;
74707;SDS011;63360;50.104;8.074;2022-09-09T02:21:42;4.00;;;0.95;;
74707;SDS011;63360;50.104;8.074;2022-09-09T02:24:10;2.33;;;1.20;;
74707;SDS011;63360;50.104;8.074;2022-09-09T02:26:39;3.95;;;0.93;;
74707;SDS011;63360;50.104;8.074;2022-09-09T02:29:11;3.10;;;1.10;;
74707;SDS011;63360;50.104;8.074;2022-09-09T02:31:41;4.32;;;1.10;;
74707;SDS011;63360;50.104;8.074;2022-09-09T02:34:08;3.25;;;1.10;;
74707;SDS011;63360;50.104;8.074;2022-09-09T02:36:35;4.03;;;1.00;;
74707;SDS011;63360;50.104;8.074;2022-09-09T02:39:05;2.78;;;1.00;;
74707;SDS011;63360;50.104;8.074;2022-09-09T02:41:34;4.45;;;0.85;;
74707;SDS011;63360;50.104;8.074;2022-09-09T02:44:05;3.08;;;1.20;;
74707;SDS011;63360;50.104;8.074;2022-09-09T02:52:15;2.83;;;0.90;;
74707;SDS011;63360;50.104;8.074;2022-09-09T02:54:42;2.60;;;0.95;;
74707;SDS011;63360;50.104;8.074;2022-09-09T02:59:46;2.93;;;0.93;;
74707;SDS011;63360;50.104;8.074;2022-09-09T03:02:12;3.63;;;1.20;;
74707;SDS011;63360;50.104;8.074;2022-09-09T03:04:38;4.13;;;1.20;;
74707;SDS011;63360;50.104;8.074;2022-09-09T03:07:03;4.37;;;1.20;;
74707;SDS011;63360;50.104;8.074;2022-09-09T03:09:29;2.60;;;1.30;;
74707;SDS011;63360;50.104;8.074;2022-09-09T03:11:55;3.20;;;1.20;;
74707;SDS011;63360;50.104;8.074;2022-09-09T03:14:21;3.15;;;1.30;;
74707;SDS011;63360;50.104;8.074;2022-09-09T03:16:49;5.63;;;1.20;;
74707;SDS011;63360;50.104;8.074;2022-09-09T03:19:18;5.70;;;1.38;;
74707;SDS011;63360;50.104;8.074;2022-09-09T03:21:47;2.67;;;1.05;;
74707;SDS011;63360;50.104;8.074;2022-09-09T03:24:12;3.55;;;1.17;;
74707;SDS011;63360;50.104;8.074;2022-09-09T03:26:39;4.37;;;1.40;;
74707;SDS011;63360;50.104;8.074;2022-09-09T03:29:05;3.55;;;1.50;;
74707;SDS011;63360;50.104;8.074;2022-09-09T03:31:31;4.70;;;1.45;;
74707;SDS011;63360;50.104;8.074;2022-09-09T03:33:57;2.75;;;1.50;;
74707;SDS011;63360;50.104;8.074;2022-09-09T03:36:26;3.50;;;1.70;;
74707;SDS011;63360;50.104;8.074;2022-09-09T03:38:52;6.38;;;2.03;;
74707;SDS011;63360;50.104;8.074;2022-09-09T03:41:19;6.72;;;1.40;;
74707;SDS011;63360;50.104;8.074;2022-09-09T03:43:44;4.33;;;1.60;;
74707;SDS011;63360;50.104;8.074;2022-09-09T03:46:09;3.93;;;1.73;;
74707;SDS011;63360;50.104;8.074;2022-09-09T03:48:35;5.80;;;1.60;;
74707;SDS011;63360;50.104;8.074;2022-09-09T03:51:00;3.60;;;1.40;;
74707;SDS011;63360;50.104;8.074;2022-09-09T03:53:26;3.27;;;1.60;;
74707;SDS011;63360;50.104;8.074;2022-09-09T03:55:53;5.13;;;1.85;;
74707;SDS011;63360;50.104;8.074;2022-09-09T03:58:21;3.45;;;1.80;;
74707;SDS011;63360;50.104;8.074;2022-09-09T04:01:22;4.22;;;1.75;;
74707;SDS011;63360;50.104;8.074;2022-09-09T04:03:42;4.90;;;1.90;;
74707;SDS011;63360;50.104;8.074;2022-09-09T04:06:10;5.40;;;2.10;;
74707;SDS011;63360;50.104;8.074;2022-09-09T04:08:38;5.72;;;2.03;;
74707;SDS011;63360;50.104;8.074;2022-09-09T04:11:04;4.80;;;2.10;;
74707;SDS011;63360;50.104;8.074;2022-09-09T04:13:31;6.13;;;2.17;;
74707;SDS011;63360;50.104;8.074;2022-09-09T04:15:58;4.23;;;1.70;;
74707;SDS011;63360;50.104;8.074;2022-09-09T04:18:24;6.90;;;2.15;;
74707;SDS011;63360;50.104;8.074;2022-09-09T04:20:51;6.93;;;2.10;;
74707;SDS011;63360;50.104;8.074;2022-09-09T04:23:17;7.30;;;1.98;;
74707;SDS011;63360;50.104;8.074;2022-09-09T04:25:48;5.78;;;1.92;;
74707;SDS011;63360;50.104;8.074;2022-09-09T04:28:15;4.67;;;2.00;;
74707;SDS011;63360;50.104;8.074;2022-09-09T04:30:42;5.03;;;1.98;;
74707;SDS011;63360;50.104;8.074;2022-09-09T04:33:08;4.22;;;2.10;;
74707;SDS011;63360;50.104;8.074;2022-09-09T04:35:35;7.53;;;2.33;;
74707;SDS011;63360;50.104;8.074;2022-09-09T04:38:01;7.72;;;3.17;;
74707;SDS011;63360;50.104;8.074;2022-09-09T04:40:27;10.70;;;2.80;;
74707;SDS011;63360;50.104;8.074;2022-09-09T04:42:54;5.93;;;2.85;;
74707;SDS011;63360;50.104;8.074;2022-09-09T04:45:20;6.30;;;2.72;;
74707;SDS011;63360;50.104;8.074;2022-09-09T04:47:45;6.20;;;2.90;;
74707;SDS011;63360;50.104;8.074;2022-09-09T04:50:10;5.27;;;2.60;;
74707;SDS011;63360;50.104;8.074;2022-09-09T04:52:36;6.68;;;2.72;;
74707;SDS011;63360;50.104;8.074;2022-09-09T04:55:02;6.40;;;2.60;;
74707;SDS011;63360;50.104;8.074;2022-09-09T04:57:28;6.72;;;2.50;;
74707;SDS011;63360;50.104;8.074;2022-09-09T04:59:55;4.47;;;2.20;;
74707;SDS011;63360;50.104;8.074;2022-09-09T05:02:20;4.57;;;2.37;;
74707;SDS011;63360;50.104;8.074;2022-09-09T05:04:45;5.63;;;2.90;;
74707;SDS011;63360;50.104;8.074;2022-09-09T05:07:11;5.97;;;2.33;;
74707;SDS011;63360;50.104;8.074;2022-09-09T05:09:36;6.63;;;2.40;;
74707;SDS011;63360;50.104;8.074;2022-09-09T05:12:01;5.03;;;2.40;;
74707;SDS011;63360;50.104;8.074;2022-09-09T05:14:28;5.10;;;2.38;;
74707;SDS011;63360;50.104;8.074;2022-09-09T05:16:54;6.03;;;2.22;;
74707;SDS011;63360;50.104;8.074;2022-09-09T05:19:20;5.70;;;2.40;;
74707;SDS011;63360;50.104;8.074;2022-09-09T05:21:46;4.70;;;2.10;;
74707;SDS011;63360;50.104;8.074;2022-09-09T05:24:11;4.67;;;2.10;;
74707;SDS011;63360;50.104;8.074;2022-09-09T05:26:36;5.30;;;2.40;;
74707;SDS011;63360;50.104;8.074;2022-09-09T05:29:02;4.63;;;2.20;;
74707;SDS011;63360;50.104;8.074;2022-09-09T05:31:29;6.32;;;2.33;;
74707;SDS011;63360;50.104;8.074;2022-09-09T05:33:55;5.17;;;2.57;;
74707;SDS011;63360;50.104;8.074;2022-09-09T05:36:21;5.72;;;2.30;;
74707;SDS011;63360;50.104;8.074;2022-09-09T05:38:47;6.88;;;2.47;;
74707;SDS011;63360;50.104;8.074;2022-09-09T05:41:14;5.70;;;2.30;;
74707;SDS011;63360;50.104;8.074;2022-09-09T05:43:43;5.60;;;2.50;;
74707;SDS011;63360;50.104;8.074;2022-09-09T05:46:12;7.32;;;2.90;;
74707;SDS011;63360;50.104;8.074;2022-09-09T05:48:40;6.07;;;3.20;;
74707;SDS011;63360;50.104;8.074;2022-09-09T05:51:08;6.90;;;3.20;;
74707;SDS011;63360;50.104;8.074;2022-09-09T05:53:37;6.20;;;3.70;;
74707;SDS011;63360;50.104;8.074;2022-09-09T05:58:30;5.15;;;3.08;;
74707;SDS011;63360;50.104;8.074;2022-09-09T06:01:00;6.45;;;2.88;;
74707;SDS011;63360;50.104;8.074;2022-09-09T06:03:36;4.90;;;2.80;;
74707;SDS011;63360;50.104;8.074;2022-09-09T06:06:04;4.93;;;3.00;;
74707;SDS011;63360;50.104;8.074;2022-09-09T06:08:32;5.60;;;2.90;;
74707;SDS011;63360;50.104;8.074;2022-09-09T06:11:07;6.50;;;2.80;;
74707;SDS011;63360;50.104;8.074;2022-09-09T06:13:34;6.07;;;2.83;;
74707;SDS011;63360;50.104;8.074;2022-09-09T06:16:02;5.07;;;2.33;;
74707;SDS011;63360;50.104;8.074;2022-09-09T06:18:29;7.60;;;2.70;;
74707;SDS011;63360;50.104;8.074;2022-09-09T06:20:55;4.50;;;2.42;;
74707;SDS011;63360;50.104;8.074;2022-09-09T06:23:29;7.87;;;2.90;;
74707;SDS011;63360;50.104;8.074;2022-09-09T06:26:03;9.38;;;3.10;;
74707;SDS011;63360;50.104;8.074;2022-09-09T06:28:30;6.30;;;2.80;;
74707;SDS011;63360;50.104;8.074;2022-09-09T06:31:03;6.50;;;2.90;;
74707;SDS011;63360;50.104;8.074;2022-09-09T06:33:30;4.00;;;3.25;;
74707;SDS011;63360;50.104;8.074;2022-09-09T06:35:58;5.10;;;3.37;;
74707;SDS011;63360;50.104;8.074;2022-09-09T06:38:23;10.00;;;3.50;;
74707;SDS011;63360;50.104;8.074;2022-09-09T06:40:52;6.30;;;2.95;;
74707;SDS011;63360;50.104;8.074;2022-09-09T06:43:19;4.77;;;3.00;;
74707;SDS011;63360;50.104;8.074;2022-09-09T06:45:52;4.18;;;2.97;;
74707;SDS011;63360;50.104;8.074;2022-09-09T06:48:21;5.30;;;2.88;;
74707;SDS011;63360;50.104;8.074;2022-09-09T06:50:46;5.80;;;2.80;;
74707;SDS011;63360;50.104;8.074;2022-09-09T06:53:11;6.10;;;2.90;;
74707;SDS011;63360;50.104;8.074;2022-09-09T06:55:37;5.97;;;2.87;;
74707;SDS011;63360;50.104;8.074;2022-09-09T06:58:02;7.10;;;2.97;;
74707;SDS011;63360;50.104;8.074;2022-09-09T07:00:33;3.75;;;2.60;;
74707;SDS011;63360;50.104;8.074;2022-09-09T07:02:58;5.67;;;3.10;;
74707;SDS011;63360;50.104;8.074;2022-09-09T07:05:23;8.10;;;3.00;;
74707;SDS011;63360;50.104;8.074;2022-09-09T07:07:50;8.77;;;3.97;;
74707;SDS011;63360;50.104;8.074;2022-09-09T07:10:16;7.20;;;3.03;;
74707;SDS011;63360;50.104;8.074;2022-09-09T07:23:13;6.25;;;3.15;;
74707;SDS011;63360;50.104;8.074;2022-09-09T07:25:44;5.97;;;3.53;;
74707;SDS011;63360;50.104;8.074;2022-09-09T07:28:10;8.45;;;3.60;;
74707;SDS011;63360;50.104;8.074;2022-09-09T07:30:35;6.93;;;3.57;;
74707;SDS011;63360;50.104;8.074;2022-09-09T07:33:00;11.17;;;4.07;;
74707;SDS011;63360;50.104;8.074;2022-09-09T07:35:27;6.15;;;3.20;;
74707;SDS011;63360;50.104;8.074;2022-09-09T07:37:52;7.93;;;3.67;;
74707;SDS011;63360;50.104;8.074;2022-09-09T07:40:18;6.70;;;3.33;;
74707;SDS011;63360;50.104;8.074;2022-09-09T07:42:46;7.13;;;3.38;;
74707;SDS011;63360;50.104;8.074;2022-09-09T07:45:12;5.68;;;3.28;;
74707;SDS011;63360;50.104;8.074;2022-09-09T07:47:38;6.77;;;3.37;;
74707;SDS011;63360;50.104;8.074;2022-09-09T07:50:03;5.30;;;3.10;;
74707;SDS011;63360;50.104;8.074;2022-09-09T07:52:28;6.75;;;3.08;;
74707;SDS011;63360;50.104;8.074;2022-09-09T07:54:54;8.10;;;3.10;;
74707;SDS011;63360;50.104;8.074;2022-09-09T07:57:20;4.25;;;2.95;;
74707;SDS011;63360;50.104;8.074;2022-09-09T07:59:46;5.82;;;3.08;;
74707;SDS011;63360;50.104;8.074;2022-09-09T08:02:11;9.03;;;3.50;;
74707;SDS011;63360;50.104;8.074;2022-09-09T08:04:36;5.17;;;2.90;;
74707;SDS011;63360;50.104;8.074;2022-09-09T08:07:02;6.27;;;2.97;;
74707;SDS011;63360;50.104;8.074;2022-09-09T08:09:28;6.88;;;2.63;;
74707;SDS011;63360;50.104;8.074;2022-09-09T08:11:54;5.27;;;2.97;;
74707;SDS011;63360;50.104;8.074;2022-09-09T08:14:21;6.72;;;2.65;;
74707;SDS011;63360;50.104;8.074;2022-09-09T08:16:48;7.55;;;2.92;;
74707;SDS011;63360;50.104;8.074;2022-09-09T08:19:15;5.22;;;2.83;;
74707;SDS011;63360;50.104;8.074;2022-09-09T08:21:41;6.00;;;2.45;;
74707;SDS011;63360;50.104;8.074;2022-09-09T08:24:08;6.97;;;2.53;;
74707;SDS011;63360;50.104;8.074;2022-09-09T08:26:39;5.70;;;2.30;;
74707;SDS011;63360;50.104;8.074;2022-09-09T08:29:07;7.25;;;2.30;;
74707;SDS011;63360;50.104;8.074;2022-09-09T08:31:36;6.65;;;2.67;;
74707;SDS011;63360;50.104;8.074;2022-09-09T08:34:07;7.18;;;2.65;;
74707;SDS011;63360;50.104;8.074;2022-09-09T08:36:35;6.63;;;2.43;;
74707;SDS011;63360;50.104;8.074;2022-09-09T08:39:02;9.32;;;2.53;;
74707;SDS011;63360;50.104;8.074;2022-09-09T08:50:25;6.43;;;2.53;;
74707;SDS011;63360;50.104;8.074;2022-09-09T08:58:21;5.80;;;2.15;;
74707;SDS011;63360;50.104;8.074;2022-09-09T09:01:05;3.85;;;2.45;;
74707;SDS011;63360;50.104;8.074;2022-09-09T09:11:40;5.15;;;2.05;;
74707;SDS011;63360;50.104;8.074;2022-09-09T09:19:21;6.35;;;2.00;;
74707;SDS011;63360;50.104;8.074;2022-09-09T09:21:53;7.57;;;1.90;;
74707;SDS011;63360;50.104;8.074;2022-09-09T09:24:53;5.05;;;1.98;;
74707;SDS011;63360;50.104;8.074;2022-09-09T09:27:38;5.63;;;2.00;;
74707;SDS011;63360;50.104;8.074;2022-09-09T09:32:43;5.28;;;1.92;;
74707;SDS011;63360;50.104;8.074;2022-09-09T09:35:20;4.63;;;2.10;;
74707;SDS011;63360;50.104;8.074;2022-09-09T09:37:46;6.13;;;2.00;;
74707;SDS011;63360;50.104;8.074;2022-09-09T09:40:14;3.80;;;1.60;;
74707;SDS011;63360;50.104;8.074;2022-09-09T09:42:51;4.15;;;1.80;;
74707;SDS011;63360;50.104;8.074;2022-09-09T09:45:22;3.30;;;1.60;;
74707;SDS011;63360;50.104;8.074;2022-09-09T09:47:57;3.38;;;1.20;;
74707;SDS011;63360;50.104;8.074;2022-09-09T09:50:28;4.50;;;1.20;;
74707;SDS011;63360;50.104;8.074;2022-09-09T09:52:55;4.18;;;1.30;;
74707;SDS011;63360;50.104;8.074;2022-09-09T09:55:23;2.45;;;1.10;;
74707;SDS011;63360;50.104;8.074;2022-09-09T09:57:50;2.67;;;1.30;;
74707;SDS011;63360;50.104;8.074;2022-09-09T10:00:17;4.10;;;1.30;;
74707;SDS011;63360;50.104;8.074;2022-09-09T10:02:45;4.70;;;1.25;;
74707;SDS011;63360;50.104;8.074;2022-09-09T10:05:15;3.90;;;1.35;;
74707;SDS011;63360;50.104;8.074;2022-09-09T10:07:43;4.60;;;1.30;;
74707;SDS011;63360;50.104;8.074;2022-09-09T10:10:11;2.27;;;1.17;;
74707;SDS011;63360;50.104;8.074;2022-09-09T10:12:50;4.47;;;1.42;;
74707;SDS011;63360;50.104;8.074;2022-09-09T10:15:44;4.15;;;1.38;;
74707;SDS011;63360;50.104;8.074;2022-09-09T10:24:23;4.87;;;1.30;;
74707;SDS011;63360;50.104;8.074;2022-09-09T10:27:18;3.00;;;1.02;;
74707;SDS011;63360;50.104;8.074;2022-09-09T10:29:54;3.05;;;1.00;;
74707;SDS011;63360;50.104;8.074;2022-09-09T10:35:04;5.82;;;1.35;;
74707;SDS011;63360;50.104;8.074;2022-09-09T10:43:01;3.72;;;1.40;;
74707;SDS011;63360;50.104;8.074;2022-09-09T10:48:31;4.93;;;1.17;;
74707;SDS011;63360;50.104;8.074;2022-09-09T10:53:45;2.65;;;0.98;;
74707;SDS011;63360;50.104;8.074;2022-09-09T10:56:13;3.08;;;0.80;;
74707;SDS011;63360;50.104;8.074;2022-09-09T10:59:04;3.65;;;0.90;;
74707;SDS011;63360;50.104;8.074;2022-09-09T11:01:34;2.60;;;1.20;;
74707;SDS011;63360;50.104;8.074;2022-09-09T11:04:05;4.67;;;0.90;;
74707;SDS011;63360;50.104;8.074;2022-09-09T11:06:41;3.95;;;0.98;;
74707;SDS011;63360;50.104;8.074;2022-09-09T11:09:14;5.18;;;1.08;;
74707;SDS011;63360;50.104;8.074;2022-09-09T11:11:44;3.67;;;1.23;;
74707;SDS011;63360;50.104;8.074;2022-09-09T11:14:20;2.42;;;0.90;;
74707;SDS011;63360;50.104;8.074;2022-09-09T11:16:54;3.70;;;0.93;;
74707;SDS011;63360;50.104;8.074;2022-09-09T11:19:27;4.32;;;0.90;;
74707;SDS011;63360;50.104;8.074;2022-09-09T11:21:59;4.45;;;1.00;;
74707;SDS011;63360;50.104;8.074;2022-09-09T11:24:32;4.32;;;1.10;;
74707;SDS011;63360;50.104;8.074;2022-09-09T11:33:07;3.72;;;1.00;;
74707;SDS011;63360;50.104;8.074;2022-09-09T11:36:11;2.42;;;1.00;;
74707;SDS011;63360;50.104;8.074;2022-09-09T11:42:05;4.03;;;0.90;;
74707;SDS011;63360;50.104;8.074;2022-09-09T11:44:32;6.10;;;1.13;;
74707;SDS011;63360;50.104;8.074;2022-09-09T11:46:58;4.07;;;1.00;;
74707;SDS011;63360;50.104;8.074;2022-09-09T11:49:28;4.83;;;1.00;;
74707;SDS011;63360;50.104;8.074;2022-09-09T11:52:10;3.17;;;1.00;;
74707;SDS011;63360;50.104;8.074;2022-09-09T11:54:46;3.78;;;0.90;;
74707;SDS011;63360;50.104;8.074;2022-09-09T11:57:32;2.65;;;0.90;;
74707;SDS011;63360;50.104;8.074;2022-09-09T12:00:00;4.70;;;0.90;;
74707;SDS011;63360;50.104;8.074;2022-09-09T12:02:28;2.53;;;0.87;;
74707;SDS011;63360;50.104;8.074;2022-09-09T12:04:58;2.38;;;0.82;;
74707;SDS011;63360;50.104;8.074;2022-09-09T12:12:45;3.05;;;1.20;;
74707;SDS011;63360;50.104;8.074;2022-09-09T12:17:58;5.07;;;1.00;;
74707;SDS011;63360;50.104;8.074;2022-09-09T12:22:55;4.20;;;1.00;;
74707;SDS011;63360;50.104;8.074;2022-09-09T12:28:15;4.25;;;1.05;;
74707;SDS011;63360;50.104;8.074;2022-09-09T12:33:20;2.75;;;0.90;;
74707;SDS011;63360;50.104;8.074;2022-09-09T12:35:49;3.38;;;1.00;;
74707;SDS011;63360;50.104;8.074;2022-09-09T12:38:36;3.30;;;0.77;;
74707;SDS011;63360;50.104;8.074;2022-09-09T12:41:04;3.25;;;1.02;;
74707;SDS011;63360;50.104;8.074;2022-09-09T12:43:29;3.10;;;0.80;;
74707;SDS011;63360;50.104;8.074;2022-09-09T12:46:01;1.30;;;0.80;;
74707;SDS011;63360;50.104;8.074;2022-09-09T12:48:35;2.42;;;0.70;;
74707;SDS011;63360;50.104;8.074;2022-09-09T12:51:03;1.88;;;0.60;;
74707;SDS011;63360;50.104;8.074;2022-09-09T12:53:33;2.47;;;0.70;;
74707;SDS011;63360;50.104;8.074;2022-09-09T12:56:04;3.07;;;0.70;;
74707;SDS011;63360;50.104;8.074;2022-09-09T12:58:33;3.28;;;0.60;;
74707;SDS011;63360;50.104;8.074;2022-09-09T13:01:00;1.98;;;0.77;;
74707;SDS011;63360;50.104;8.074;2022-09-09T13:03:30;2.10;;;0.60;;
74707;SDS011;63360;50.104;8.074;2022-09-09T13:06:10;1.95;;;0.60;;
74707;SDS011;63360;50.104;8.074;2022-09-09T13:08:37;2.23;;;0.73;;
74707;SDS011;63360;50.104;8.074;2022-09-09T13:11:03;3.13;;;0.70;;
74707;SDS011;63360;50.104;8.074;2022-09-09T13:13:38;2.65;;;0.55;;
74707;SDS011;63360;50.104;8.074;2022-09-09T13:16:06;2.10;;;0.70;;
74707;SDS011;63360;50.104;8.074;2022-09-09T13:18:56;3.70;;;0.80;;
74707;SDS011;63360;50.104;8.074;2022-09-09T13:21:31;2.80;;;0.88;;
74707;SDS011;63360;50.104;8.074;2022-09-09T13:23:59;3.75;;;0.65;;
74707;SDS011;63360;50.104;8.074;2022-09-09T13:26:28;4.32;;;0.70;;
74707;SDS011;63360;50.104;8.074;2022-09-09T13:28:55;5.87;;;0.90;;
74707;SDS011;63360;50.104;8.074;2022-09-09T13:31:42;3.22;;;0.80;;
74707;SDS011;63360;50.104;8.074;2022-09-09T13:34:26;1.52;;;0.50;;
74707;SDS011;63360;50.104;8.074;2022-09-09T13:36:54;3.80;;;0.70;;
74707;SDS011;63360;50.104;8.074;2022-09-09T13:39:27;1.73;;;0.70;;
74707;SDS011;63360;50.104;8.074;2022-09-09T13:41:53;3.63;;;0.98;;
74707;SDS011;63360;50.104;8.074;2022-09-09T13:44:23;4.43;;;0.70;;
74707;SDS011;63360;50.104;8.074;2022-09-09T13:47:06;1.80;;;0.60;;
74707;SDS011;63360;50.104;8.074;2022-09-09T13:49:44;5.10;;;0.85;;
74707;SDS011;63360;50.104;8.074;2022-09-09T13:52:11;2.93;;;0.63;;
74707;SDS011;63360;50.104;8.074;2022-09-09T13:54:38;2.53;;;0.73;;
74707;SDS011;63360;50.104;8.074;2022-09-09T13:57:04;3.13;;;0.80;;
74707;SDS011;63360;50.104;8.074;2022-09-09T13:59:30;3.25;;;0.82;;
74707;SDS011;63360;50.104;8.074;2022-09-09T14:01:56;2.67;;;0.80;;
74707;SDS011;63360;50.104;8.074;2022-09-09T14:04:22;2.63;;;0.80;;
74707;SDS011;63360;50.104;8.074;2022-09-09T14:06:47;2.50;;;0.70;;
74707;SDS011;63360;50.104;8.074;2022-09-09T14:09:15;4.22;;;1.00;;
74707;SDS011;63360;50.104;8.074;2022-09-09T14:11:42;4.68;;;0.90;;
74707;SDS011;63360;50.104;8.074;2022-09-09T14:14:08;3.85;;;0.98;;
74707;SDS011;63360;50.104;8.074;2022-09-09T14:16:34;3.30;;;1.13;;
74707;SDS011;63360;50.104;8.074;2022-09-09T14:19:00;3.90;;;0.95;;
74707;SDS011;63360;50.104;8.074;2022-09-09T14:21:26;4.73;;;1.20;;
74707;SDS011;63360;50.104;8.074;2022-09-09T14:23:52;3.40;;;0.80;;
74707;SDS011;63360;50.104;8.074;2022-09-09T14:26:18;2.87;;;1.00;;
74707;SDS011;63360;50.104;8.074;2022-09-09T14:28:46;2.17;;;0.95;;
74707;SDS011;63360;50.104;8.074;2022-09-09T14:31:12;4.97;;;0.90;;
74707;SDS011;63360;50.104;8.074;2022-09-09T14:33:38;4.40;;;0.83;;
74707;SDS011;63360;50.104;8.074;2022-09-09T14:36:04;3.00;;;0.90;;
74707;SDS011;63360;50.104;8.074;2022-09-09T14:38:30;4.53;;;1.00;;
74707;SDS011;63360;50.104;8.074;2022-09-09T14:40:58;3.50;;;0.98;;
74707;SDS011;63360;50.104;8.074;2022-09-09T14:43:24;2.87;;;0.93;;
74707;SDS011;63360;50.104;8.074;2022-09-09T14:45:49;2.97;;;0.70;;
74707;SDS011;63360;50.104;8.074;2022-09-09T14:48:16;2.30;;;0.90;;
74707;SDS011;63360;50.104;8.074;2022-09-09T14:50:41;4.53;;;0.80;;
74707;SDS011;63360;50.104;8.074;2022-09-09T14:53:07;3.20;;;0.90;;
74707;SDS011;63360;50.104;8.074;2022-09-09T14:55:33;2.85;;;0.80;;
74707;SDS011;63360;50.104;8.074;2022-09-09T14:57:59;3.23;;;0.90;;
74707;SDS011;63360;50.104;8.074;2022-09-09T15:00:24;3.60;;;0.87;;
74707;SDS011;63360;50.104;8.074;2022-09-09T15:02:52;2.40;;;0.80;;
74707;SDS011;63360;50.104;8.074;2022-09-09T15:05:20;3.53;;;0.80;;
74707;SDS011;63360;50.104;8.074;2022-09-09T15:07:46;3.80;;;0.90;;
74707;SDS011;63360;50.104;8.074;2022-09-09T15:10:12;2.05;;;0.60;;
74707;SDS011;63360;50.104;8.074;2022-09-09T15:12:38;2.50;;;0.50;;
74707;SDS011;63360;50.104;8.074;2022-09-09T15:15:03;2.43;;;0.50;;
74707;SDS011;63360;50.104;8.074;2022-09-09T15:17:29;1.83;;;0.50;;
74707;SDS011;63360;50.104;8.074;2022-09-09T15:19:54;1.70;;;0.70;;
74707;SDS011;63360;50.104;8.074;2022-09-09T15:22:20;2.80;;;0.50;;
74707;SDS011;63360;50.104;8.074;2022-09-09T15:24:45;1.35;;;0.50;;
74707;SDS011;63360;50.104;8.074;2022-09-09T15:27:10;3.47;;;0.60;;
74707;SDS011;63360;50.104;8.074;2022-09-09T15:29:36;3.63;;;0.50;;
74707;SDS011;63360;50.104;8.074;2022-09-09T15:32:03;2.35;;;0.52;;
74707;SDS011;63360;50.104;8.074;2022-09-09T15:34:28;1.90;;;0.50;;
74707;SDS011;63360;50.104;8.074;2022-09-09T15:36:54;3.50;;;0.60;;
74707;SDS011;63360;50.104;8.074;2022-09-09T15:39:20;2.47;;;0.80;;
74707;SDS011;63360;50.104;8.074;2022-09-09T15:41:46;3.15;;;0.63;;
74707;SDS011;63360;50.104;8.074;2022-09-09T15:44:13;2.13;;;0.70;;
74707;SDS011;63360;50.104;8.074;2022-09-09T15:46:43;2.87;;;0.60;;
74707;SDS011;63360;50.104;8.074;2022-09-09T15:49:16;2.40;;;0.60;;
74707;SDS011;63360;50.104;8.074;2022-09-09T15:51:44;2.30;;;0.63;;
74707;SDS011;63360;50.104;8.074;2022-09-09T15:54:15;2.40;;;0.90;;
74707;SDS011;63360;50.104;8.074;2022-09-09T15:56:43;2.55;;;0.70;;
74707;SDS011;63360;50.104;8.074;2022-09-09T15:59:09;3.60;;;0.60;;
74707;SDS011;63360;50.104;8.074;2022-09-09T16:01:34;3.33;;;0.60;;
74707;SDS011;63360;50.104;8.074;2022-09-09T16:04:00;3.57;;;0.70;;
74707;SDS011;63360;50.104;8.074;2022-09-09T16:06:26;2.42;;;0.50;;
74707;SDS011;63360;50.104;8.074;2022-09-09T16:08:53;2.53;;;0.80;;
74707;SDS011;63360;50.104;8.074;2022-09-09T16:11:23;4.43;;;0.70;;
74707;SDS011;63360;50.104;8.074;2022-09-09T16:13:54;2.38;;;0.65;;
74707;SDS011;63360;50.104;8.074;2022-09-09T16:16:21;1.20;;;0.60;;
74707;SDS011;63360;50.104;8.074;2022-09-09T16:18:53;2.70;;;0.70;;
74707;SDS011;63360;50.104;8.074;2022-09-09T16:21:24;1.65;;;0.50;;
74707;SDS011;63360;50.104;8.074;2022-09-09T16:23:54;3.37;;;0.60;;
74707;SDS011;63360;50.104;8.074;2022-09-09T16:26:20;2.83;;;0.77;;
74707;SDS011;63360;50.104;8.074;2022-09-09T16:28:45;1.30;;;0.63;;
74707;SDS011;63360;50.104;8.074;2022-09-09T16:31:18;3.42;;;0.70;;
74707;SDS011;63360;50.104;8.074;2022-09-09T16:33:46;3.38;;;0.60;;
74707;SDS011;63360;50.104;8.074;2022-09-09T16:36:13;3.15;;;0.60;;
74707;SDS011;63360;50.104;8.074;2022-09-09T16:38:40;2.20;;;0.50;;
74707;SDS011;63360;50.104;8.074;2022-09-09T16:41:06;2.85;;;0.60;;
74707;SDS011;63360;50.104;8.074;2022-09-09T16:43:33;1.95;;;0.80;;
74707;SDS011;63360;50.104;8.074;2022-09-09T16:46:00;1.98;;;0.63;;
74707;SDS011;63360;50.104;8.074;2022-09-09T16:48:27;1.43;;;0.60;;
74707;SDS011;63360;50.104;8.074;2022-09-09T16:51:03;1.60;;;0.60;;
74707;SDS011;63360;50.104;8.074;2022-09-09T16:53:31;4.15;;;0.73;;
74707;SDS011;63360;50.104;8.074;2022-09-09T16:55:57;2.17;;;0.60;;
74707;SDS011;63360;50.104;8.074;2022-09-09T16:58:22;1.60;;;0.60;;
74707;SDS011;63360;50.104;8.074;2022-09-09T17:00:47;2.93;;;1.10;;
74707;SDS011;63360;50.104;8.074;2022-09-09T17:03:13;3.23;;;1.03;;
74707;SDS011;63360;50.104;8.074;2022-09-09T17:05:41;4.03;;;0.90;;
74707;SDS011;63360;50.104;8.074;2022-09-09T17:08:06;2.97;;;0.82;;
74707;SDS011;63360;50.104;8.074;2022-09-09T17:10:32;1.60;;;0.80;;
74707;SDS011;63360;50.104;8.074;2022-09-09T17:12:57;2.10;;;1.00;;
74707;SDS011;63360;50.104;8.074;2022-09-09T17:15:22;1.58;;;0.70;;
74707;SDS011;63360;50.104;8.074;2022-09-09T17:17:49;2.10;;;0.70;;
74707;SDS011;63360;50.104;8.074;2022-09-09T17:20:18;1.88;;;0.70;;
74707;SDS011;63360;50.104;8.074;2022-09-09T17:22:44;3.20;;;0.70;;
74707;SDS011;63360;50.104;8.074;2022-09-09T17:25:10;2.33;;;0.80;;
74707;SDS011;63360;50.104;8.074;2022-09-09T17:27:36;2.30;;;0.80;;
74707;SDS011;63360;50.104;8.074;2022-09-09T17:30:01;3.77;;;0.87;;